sensor_id;sensor_type;location;lat;lon;timestamp;P1;durP1;ratioP1;P2;durP2;ratioP2
14282;SDS011;72649;59.274;18.450;2023-09-08T00:02:27;4.27;;;2.27;;
14282;SDS011;72649;59.274;18.450;2023-09-08T00:04:55;8.30;;;2.63;;
14282;SDS011;72649;59.274;18.450;2023-09-08T00:07:22;5.70;;;2.37;;
14282;SDS011;72649;59.274;18.450;2023-09-08T00:09:49;5.27;;;2.10;;
14282;SDS011;72649;59.274;18.450;2023-09-08T00:12:16;4.53;;;2.10;;
14282;SDS011;72649;59.274;18.450;2023-09-08T00:14:43;5.10;;;2.50;;
14282;SDS011;72649;59.274;18.450;2023-09-08T00:17:10;3.57;;;2.10;;
14282;SDS011;72649;59.274;18.450;2023-09-08T00:19:37;4.83;;;2.03;;
14282;SDS011;72649;59.274;18.450;2023-09-08T00:22:04;4.83;;;2.60;;
14282;SDS011;72649;59.274;18.450;2023-09-08T00:24:34;4.47;;;2.17;;
14282;SDS011;72649;59.274;18.450;2023-09-08T00:27:01;4.70;;;2.47;;
14282;SDS011;72649;59.274;18.450;2023-09-08T00:29:28;4.13;;;2.20;;
14282;SDS011;72649;59.274;18.450;2023-09-08T00:31:55;5.37;;;2.20;;
14282;SDS011;72649;59.274;18.450;2023-09-08T00:34:22;3.10;;;2.10;;
14282;SDS011;72649;59.274;18.450;2023-09-08T00:36:49;5.17;;;2.20;;
14282;SDS011;72649;59.274;18.450;2023-09-08T00:39:17;4.07;;;2.33;;
14282;SDS011;72649;59.274;18.450;2023-09-08T00:41:44;6.30;;;2.57;;
14282;SDS011;72649;59.274;18.450;2023-09-08T00:44:11;9.33;;;2.90;;
14282;SDS011;72649;59.274;18.450;2023-09-08T00:46:38;5.97;;;2.70;;
14282;SDS011;72649;59.274;18.450;2023-09-08T00:49:06;7.70;;;2.43;;
14282;SDS011;72649;59.274;18.450;2023-09-08T00:51:35;7.63;;;2.40;;
14282;SDS011;72649;59.274;18.450;2023-09-08T00:54:04;4.80;;;2.27;;
14282;SDS011;72649;59.274;18.450;2023-09-08T00:56:32;5.73;;;2.67;;
14282;SDS011;72649;59.274;18.450;2023-09-08T00:59:00;7.43;;;2.57;;
14282;SDS011;72649;59.274;18.450;2023-09-08T01:01:28;5.43;;;2.70;;
14282;SDS011;72649;59.274;18.450;2023-09-08T01:03:56;6.97;;;3.23;;
14282;SDS011;72649;59.274;18.450;2023-09-08T01:06:23;6.73;;;2.43;;
14282;SDS011;72649;59.274;18.450;2023-09-08T01:08:51;5.17;;;3.00;;
14282;SDS011;72649;59.274;18.450;2023-09-08T01:11:19;3.40;;;2.37;;
14282;SDS011;72649;59.274;18.450;2023-09-08T01:13:46;5.30;;;2.60;;
14282;SDS011;72649;59.274;18.450;2023-09-08T01:16:13;6.27;;;2.80;;
14282;SDS011;72649;59.274;18.450;2023-09-08T01:18:40;8.83;;;3.00;;
14282;SDS011;72649;59.274;18.450;2023-09-08T01:21:13;9.00;;;2.73;;
14282;SDS011;72649;59.274;18.450;2023-09-08T01:26:22;8.20;;;2.83;;
14282;SDS011;72649;59.274;18.450;2023-09-08T01:28:54;3.67;;;2.53;;
14282;SDS011;72649;59.274;18.450;2023-09-08T01:31:22;4.10;;;2.77;;
14282;SDS011;72649;59.274;18.450;2023-09-08T01:33:49;3.97;;;2.80;;
14282;SDS011;72649;59.274;18.450;2023-09-08T01:36:16;5.57;;;3.10;;
14282;SDS011;72649;59.274;18.450;2023-09-08T01:38:43;6.93;;;3.33;;
14282;SDS011;72649;59.274;18.450;2023-09-08T01:41:10;3.63;;;2.80;;
14282;SDS011;72649;59.274;18.450;2023-09-08T01:43:37;5.03;;;3.17;;
14282;SDS011;72649;59.274;18.450;2023-09-08T01:46:04;5.80;;;3.33;;
14282;SDS011;72649;59.274;18.450;2023-09-08T01:48:31;6.33;;;3.20;;
14282;SDS011;72649;59.274;18.450;2023-09-08T01:50:58;7.47;;;3.13;;
14282;SDS011;72649;59.274;18.450;2023-09-08T01:53:25;6.03;;;4.00;;
14282;SDS011;72649;59.274;18.450;2023-09-08T01:55:52;8.30;;;3.30;;
14282;SDS011;72649;59.274;18.450;2023-09-08T01:58:19;5.33;;;3.40;;
14282;SDS011;72649;59.274;18.450;2023-09-08T02:00:49;6.40;;;3.37;;
14282;SDS011;72649;59.274;18.450;2023-09-08T02:03:17;5.20;;;3.07;;
14282;SDS011;72649;59.274;18.450;2023-09-08T02:05:44;7.73;;;3.43;;
14282;SDS011;72649;59.274;18.450;2023-09-08T02:08:11;4.50;;;3.57;;
14282;SDS011;72649;59.274;18.450;2023-09-08T02:10:39;6.10;;;3.97;;
14282;SDS011;72649;59.274;18.450;2023-09-08T02:13:07;7.17;;;4.40;;
14282;SDS011;72649;59.274;18.450;2023-09-08T02:15:37;7.73;;;4.10;;
14282;SDS011;72649;59.274;18.450;2023-09-08T02:18:04;6.37;;;4.00;;
14282;SDS011;72649;59.274;18.450;2023-09-08T02:20:32;4.20;;;3.47;;
14282;SDS011;72649;59.274;18.450;2023-09-08T02:23:03;5.83;;;4.53;;
14282;SDS011;72649;59.274;18.450;2023-09-08T02:25:31;7.33;;;3.90;;
14282;SDS011;72649;59.274;18.450;2023-09-08T02:27:58;4.17;;;3.30;;
14282;SDS011;72649;59.274;18.450;2023-09-08T02:30:25;6.23;;;4.07;;
14282;SDS011;72649;59.274;18.450;2023-09-08T02:32:52;5.73;;;3.80;;
14282;SDS011;72649;59.274;18.450;2023-09-08T02:35:23;7.20;;;4.00;;
14282;SDS011;72649;59.274;18.450;2023-09-08T02:37:51;6.50;;;4.07;;
14282;SDS011;72649;59.274;18.450;2023-09-08T02:40:17;5.40;;;4.40;;
14282;SDS011;72649;59.274;18.450;2023-09-08T02:42:46;5.97;;;4.13;;
14282;SDS011;72649;59.274;18.450;2023-09-08T02:45:13;5.50;;;4.33;;
14282;SDS011;72649;59.274;18.450;2023-09-08T02:47:40;7.47;;;4.10;;
14282;SDS011;72649;59.274;18.450;2023-09-08T02:50:08;9.80;;;4.83;;
14282;SDS011;72649;59.274;18.450;2023-09-08T02:52:35;6.83;;;4.90;;
14282;SDS011;72649;59.274;18.450;2023-09-08T02:55:02;6.53;;;4.83;;
14282;SDS011;72649;59.274;18.450;2023-09-08T02:57:29;8.20;;;4.97;;
14282;SDS011;72649;59.274;18.450;2023-09-08T02:59:56;6.60;;;5.10;;
14282;SDS011;72649;59.274;18.450;2023-09-08T03:02:25;7.73;;;5.43;;
14282;SDS011;72649;59.274;18.450;2023-09-08T03:04:53;5.90;;;5.13;;
14282;SDS011;72649;59.274;18.450;2023-09-08T03:07:20;5.10;;;4.60;;
14282;SDS011;72649;59.274;18.450;2023-09-08T03:09:47;7.67;;;5.33;;
14282;SDS011;72649;59.274;18.450;2023-09-08T03:12:14;8.57;;;5.27;;
14282;SDS011;72649;59.274;18.450;2023-09-08T03:14:41;9.23;;;5.33;;
14282;SDS011;72649;59.274;18.450;2023-09-08T03:17:08;8.70;;;5.07;;
14282;SDS011;72649;59.274;18.450;2023-09-08T03:19:35;8.27;;;4.97;;
14282;SDS011;72649;59.274;18.450;2023-09-08T03:22:02;5.87;;;5.23;;
14282;SDS011;72649;59.274;18.450;2023-09-08T03:24:29;9.13;;;6.23;;
14282;SDS011;72649;59.274;18.450;2023-09-08T03:26:56;8.03;;;6.00;;
14282;SDS011;72649;59.274;18.450;2023-09-08T03:29:24;10.27;;;6.00;;
14282;SDS011;72649;59.274;18.450;2023-09-08T03:31:51;8.67;;;5.40;;
14282;SDS011;72649;59.274;18.450;2023-09-08T03:34:18;8.20;;;6.07;;
14282;SDS011;72649;59.274;18.450;2023-09-08T03:36:48;7.00;;;5.60;;
14282;SDS011;72649;59.274;18.450;2023-09-08T03:39:15;8.90;;;6.30;;
14282;SDS011;72649;59.274;18.450;2023-09-08T03:41:42;7.07;;;6.23;;
14282;SDS011;72649;59.274;18.450;2023-09-08T03:44:09;8.83;;;6.40;;
14282;SDS011;72649;59.274;18.450;2023-09-08T03:46:36;10.60;;;6.40;;
14282;SDS011;72649;59.274;18.450;2023-09-08T03:49:03;9.63;;;6.07;;
14282;SDS011;72649;59.274;18.450;2023-09-08T03:51:30;10.83;;;6.60;;
14282;SDS011;72649;59.274;18.450;2023-09-08T03:53:57;8.73;;;6.70;;
14282;SDS011;72649;59.274;18.450;2023-09-08T03:56:24;8.67;;;7.10;;
14282;SDS011;72649;59.274;18.450;2023-09-08T03:58:51;12.33;;;7.30;;
14282;SDS011;72649;59.274;18.450;2023-09-08T04:01:18;8.73;;;6.73;;
14282;SDS011;72649;59.274;18.450;2023-09-08T04:03:45;10.17;;;7.23;;
14282;SDS011;72649;59.274;18.450;2023-09-08T04:06:12;10.63;;;8.00;;
14282;SDS011;72649;59.274;18.450;2023-09-08T04:08:39;13.23;;;7.87;;
14282;SDS011;72649;59.274;18.450;2023-09-08T04:11:06;10.20;;;7.77;;
14282;SDS011;72649;59.274;18.450;2023-09-08T04:13:32;10.10;;;7.77;;
14282;SDS011;72649;59.274;18.450;2023-09-08T04:16:00;9.63;;;8.63;;
14282;SDS011;72649;59.274;18.450;2023-09-08T04:18:27;8.93;;;7.77;;
14282;SDS011;72649;59.274;18.450;2023-09-08T04:20:54;10.77;;;8.33;;
14282;SDS011;72649;59.274;18.450;2023-09-08T04:23:21;10.77;;;8.60;;
14282;SDS011;72649;59.274;18.450;2023-09-08T04:25:47;9.57;;;8.43;;
14282;SDS011;72649;59.274;18.450;2023-09-08T04:28:14;9.20;;;8.20;;
14282;SDS011;72649;59.274;18.450;2023-09-08T04:30:41;11.37;;;8.10;;
14282;SDS011;72649;59.274;18.450;2023-09-08T04:33:08;12.87;;;9.23;;
14282;SDS011;72649;59.274;18.450;2023-09-08T04:35:35;9.63;;;8.63;;
14282;SDS011;72649;59.274;18.450;2023-09-08T04:38:02;13.90;;;9.07;;
14282;SDS011;72649;59.274;18.450;2023-09-08T04:40:30;12.97;;;8.90;;
14282;SDS011;72649;59.274;18.450;2023-09-08T04:42:57;10.47;;;8.70;;
14282;SDS011;72649;59.274;18.450;2023-09-08T04:45:24;10.43;;;9.10;;
14282;SDS011;72649;59.274;18.450;2023-09-08T04:47:51;13.37;;;9.40;;
14282;SDS011;72649;59.274;18.450;2023-09-08T04:50:18;11.50;;;9.20;;
14282;SDS011;72649;59.274;18.450;2023-09-08T04:52:45;14.00;;;9.60;;
14282;SDS011;72649;59.274;18.450;2023-09-08T04:55:12;14.07;;;9.63;;
14282;SDS011;72649;59.274;18.450;2023-09-08T04:57:39;13.67;;;9.27;;
14282;SDS011;72649;59.274;18.450;2023-09-08T05:00:06;12.97;;;9.70;;
14282;SDS011;72649;59.274;18.450;2023-09-08T05:02:33;13.70;;;9.97;;
14282;SDS011;72649;59.274;18.450;2023-09-08T05:05:00;10.33;;;9.27;;
14282;SDS011;72649;59.274;18.450;2023-09-08T05:07:27;10.60;;;9.50;;
14282;SDS011;72649;59.274;18.450;2023-09-08T05:09:54;15.93;;;9.90;;
14282;SDS011;72649;59.274;18.450;2023-09-08T05:12:23;12.30;;;10.03;;
14282;SDS011;72649;59.274;18.450;2023-09-08T05:14:50;14.63;;;10.23;;
14282;SDS011;72649;59.274;18.450;2023-09-08T05:17:25;13.13;;;10.30;;
14282;SDS011;72649;59.274;18.450;2023-09-08T05:19:52;13.50;;;10.13;;
14282;SDS011;72649;59.274;18.450;2023-09-08T05:22:19;11.83;;;9.97;;
14282;SDS011;72649;59.274;18.450;2023-09-08T05:24:46;12.73;;;9.83;;
14282;SDS011;72649;59.274;18.450;2023-09-08T05:27:13;11.77;;;9.67;;
14282;SDS011;72649;59.274;18.450;2023-09-08T05:29:39;14.50;;;10.33;;
14282;SDS011;72649;59.274;18.450;2023-09-08T05:32:07;13.37;;;9.23;;
14282;SDS011;72649;59.274;18.450;2023-09-08T05:34:33;10.60;;;9.50;;
14282;SDS011;72649;59.274;18.450;2023-09-08T05:37:00;10.73;;;9.70;;
14282;SDS011;72649;59.274;18.450;2023-09-08T05:39:27;11.83;;;10.10;;
14282;SDS011;72649;59.274;18.450;2023-09-08T05:41:54;14.60;;;10.17;;
14282;SDS011;72649;59.274;18.450;2023-09-08T05:44:21;12.53;;;10.30;;
14282;SDS011;72649;59.274;18.450;2023-09-08T05:46:48;13.47;;;10.27;;
14282;SDS011;72649;59.274;18.450;2023-09-08T05:49:15;11.33;;;9.90;;
14282;SDS011;72649;59.274;18.450;2023-09-08T05:51:44;11.77;;;10.57;;
14282;SDS011;72649;59.274;18.450;2023-09-08T05:54:11;11.40;;;10.20;;
14282;SDS011;72649;59.274;18.450;2023-09-08T05:56:38;10.37;;;9.37;;
14282;SDS011;72649;59.274;18.450;2023-09-08T05:59:05;11.30;;;9.80;;
14282;SDS011;72649;59.274;18.450;2023-09-08T06:01:32;10.13;;;9.07;;
14282;SDS011;72649;59.274;18.450;2023-09-08T06:03:59;11.50;;;9.60;;
14282;SDS011;72649;59.274;18.450;2023-09-08T06:06:26;11.73;;;9.63;;
14282;SDS011;72649;59.274;18.450;2023-09-08T06:08:54;11.50;;;9.43;;
14282;SDS011;72649;59.274;18.450;2023-09-08T06:11:21;11.00;;;9.13;;
14282;SDS011;72649;59.274;18.450;2023-09-08T06:13:48;10.83;;;9.73;;
14282;SDS011;72649;59.274;18.450;2023-09-08T06:16:15;11.73;;;8.97;;
14282;SDS011;72649;59.274;18.450;2023-09-08T06:18:42;10.27;;;9.23;;
14282;SDS011;72649;59.274;18.450;2023-09-08T06:21:10;9.47;;;8.60;;
14282;SDS011;72649;59.274;18.450;2023-09-08T06:23:37;10.07;;;9.07;;
14282;SDS011;72649;59.274;18.450;2023-09-08T06:26:04;11.67;;;8.57;;
14282;SDS011;72649;59.274;18.450;2023-09-08T06:28:31;9.20;;;8.23;;
14282;SDS011;72649;59.274;18.450;2023-09-08T06:30:59;8.87;;;7.97;;
14282;SDS011;72649;59.274;18.450;2023-09-08T06:33:26;10.20;;;9.17;;
14282;SDS011;72649;59.274;18.450;2023-09-08T06:35:53;8.90;;;7.77;;
14282;SDS011;72649;59.274;18.450;2023-09-08T06:38:20;9.83;;;8.27;;
14282;SDS011;72649;59.274;18.450;2023-09-08T06:40:47;11.17;;;8.40;;
14282;SDS011;72649;59.274;18.450;2023-09-08T06:43:14;8.53;;;7.30;;
14282;SDS011;72649;59.274;18.450;2023-09-08T06:45:41;10.00;;;7.70;;
14282;SDS011;72649;59.274;18.450;2023-09-08T06:48:08;10.53;;;8.00;;
14282;SDS011;72649;59.274;18.450;2023-09-08T06:50:35;9.57;;;8.23;;
14282;SDS011;72649;59.274;18.450;2023-09-08T06:53:03;9.07;;;7.40;;
14282;SDS011;72649;59.274;18.450;2023-09-08T06:55:30;7.77;;;7.07;;
14282;SDS011;72649;59.274;18.450;2023-09-08T06:57:57;9.40;;;7.83;;
14282;SDS011;72649;59.274;18.450;2023-09-08T07:00:24;8.93;;;7.97;;
14282;SDS011;72649;59.274;18.450;2023-09-08T07:02:51;8.10;;;7.30;;
14282;SDS011;72649;59.274;18.450;2023-09-08T07:05:18;8.50;;;7.60;;
14282;SDS011;72649;59.274;18.450;2023-09-08T07:07:45;8.30;;;7.50;;
14282;SDS011;72649;59.274;18.450;2023-09-08T07:10:13;8.53;;;7.63;;
14282;SDS011;72649;59.274;18.450;2023-09-08T07:12:40;7.77;;;6.90;;
14282;SDS011;72649;59.274;18.450;2023-09-08T07:15:07;7.90;;;7.20;;
14282;SDS011;72649;59.274;18.450;2023-09-08T07:17:35;8.07;;;7.27;;
14282;SDS011;72649;59.274;18.450;2023-09-08T07:20:03;7.60;;;6.93;;
14282;SDS011;72649;59.274;18.450;2023-09-08T07:22:31;9.43;;;6.47;;
14282;SDS011;72649;59.274;18.450;2023-09-08T07:24:57;7.37;;;6.63;;
14282;SDS011;72649;59.274;18.450;2023-09-08T07:27:24;8.53;;;6.87;;
14282;SDS011;72649;59.274;18.450;2023-09-08T07:29:51;8.47;;;7.60;;
14282;SDS011;72649;59.274;18.450;2023-09-08T07:32:18;7.50;;;6.60;;
14282;SDS011;72649;59.274;18.450;2023-09-08T07:34:45;7.63;;;6.60;;
14282;SDS011;72649;59.274;18.450;2023-09-08T07:37:14;8.60;;;6.93;;
14282;SDS011;72649;59.274;18.450;2023-09-08T07:39:41;8.87;;;6.53;;
14282;SDS011;72649;59.274;18.450;2023-09-08T07:42:08;8.80;;;7.30;;
14282;SDS011;72649;59.274;18.450;2023-09-08T07:44:35;9.27;;;7.70;;
14282;SDS011;72649;59.274;18.450;2023-09-08T07:47:01;7.30;;;6.63;;
14282;SDS011;72649;59.274;18.450;2023-09-08T07:49:29;6.50;;;5.90;;
14282;SDS011;72649;59.274;18.450;2023-09-08T07:51:56;7.50;;;6.70;;
14282;SDS011;72649;59.274;18.450;2023-09-08T07:54:23;8.43;;;6.67;;
14282;SDS011;72649;59.274;18.450;2023-09-08T07:56:50;9.13;;;6.97;;
14282;SDS011;72649;59.274;18.450;2023-09-08T07:59:17;7.00;;;6.30;;
14282;SDS011;72649;59.274;18.450;2023-09-08T08:01:44;9.13;;;6.73;;
14282;SDS011;72649;59.274;18.450;2023-09-08T08:04:10;8.50;;;6.10;;
14282;SDS011;72649;59.274;18.450;2023-09-08T08:06:38;6.77;;;6.17;;
14282;SDS011;72649;59.274;18.450;2023-09-08T08:09:05;6.83;;;6.23;;
14282;SDS011;72649;59.274;18.450;2023-09-08T08:11:32;7.03;;;6.33;;
14282;SDS011;72649;59.274;18.450;2023-09-08T08:13:59;6.97;;;6.30;;
14282;SDS011;72649;59.274;18.450;2023-09-08T08:16:27;9.05;;;7.13;;
14282;SDS011;72649;59.274;18.450;2023-09-08T08:18:54;6.20;;;5.60;;
14282;SDS011;72649;59.274;18.450;2023-09-08T08:21:21;6.57;;;5.97;;
14282;SDS011;72649;59.274;18.450;2023-09-08T08:23:49;9.03;;;6.27;;
14282;SDS011;72649;59.274;18.450;2023-09-08T08:26:16;6.10;;;5.50;;
14282;SDS011;72649;59.274;18.450;2023-09-08T08:28:45;6.43;;;5.65;;
14282;SDS011;72649;59.274;18.450;2023-09-08T08:31:12;8.45;;;6.15;;
14282;SDS011;72649;59.274;18.450;2023-09-08T08:33:39;6.53;;;5.93;;
14282;SDS011;72649;59.274;18.450;2023-09-08T08:36:06;6.13;;;5.53;;
14282;SDS011;72649;59.274;18.450;2023-09-08T08:38:33;6.35;;;5.47;;
14282;SDS011;72649;59.274;18.450;2023-09-08T08:41:04;6.28;;;5.28;;
14282;SDS011;72649;59.274;18.450;2023-09-08T08:43:31;5.65;;;5.15;;
14282;SDS011;72649;59.274;18.450;2023-09-08T08:45:58;7.45;;;5.53;;
14282;SDS011;72649;59.274;18.450;2023-09-08T08:48:27;6.63;;;5.47;;
14282;SDS011;72649;59.274;18.450;2023-09-08T08:50:57;6.47;;;5.88;;
14282;SDS011;72649;59.274;18.450;2023-09-08T08:53:25;7.68;;;5.57;;
14282;SDS011;72649;59.274;18.450;2023-09-08T08:55:54;5.78;;;5.13;;
14282;SDS011;72649;59.274;18.450;2023-09-08T08:58:23;6.47;;;5.07;;
14282;SDS011;72649;59.274;18.450;2023-09-08T09:00:53;5.90;;;5.32;;
14282;SDS011;72649;59.274;18.450;2023-09-08T09:03:23;5.95;;;5.35;;
14282;SDS011;72649;59.274;18.450;2023-09-08T09:05:53;5.25;;;4.75;;
14282;SDS011;72649;59.274;18.450;2023-09-08T09:08:20;5.10;;;4.60;;
14282;SDS011;72649;59.274;18.450;2023-09-08T09:10:50;6.53;;;4.70;;
14282;SDS011;72649;59.274;18.450;2023-09-08T09:13:18;5.90;;;5.00;;
14282;SDS011;72649;59.274;18.450;2023-09-08T09:15:45;5.28;;;4.78;;
14282;SDS011;72649;59.274;18.450;2023-09-08T09:18:13;5.35;;;4.85;;
14282;SDS011;72649;59.274;18.450;2023-09-08T09:20:40;5.97;;;5.43;;
14282;SDS011;72649;59.274;18.450;2023-09-08T09:25:59;5.57;;;4.38;;
14282;SDS011;72649;59.274;18.450;2023-09-08T09:28:30;4.75;;;4.38;;
14282;SDS011;72649;59.274;18.450;2023-09-08T09:30:57;6.25;;;4.47;;
14282;SDS011;72649;59.274;18.450;2023-09-08T09:33:25;6.95;;;4.53;;
14282;SDS011;72649;59.274;18.450;2023-09-08T09:35:54;5.03;;;4.63;;
14282;SDS011;72649;59.274;18.450;2023-09-08T09:38:21;5.10;;;4.45;;
14282;SDS011;72649;59.274;18.450;2023-09-08T09:40:48;5.70;;;4.25;;
14282;SDS011;72649;59.274;18.450;2023-09-08T09:43:16;6.15;;;4.63;;
14282;SDS011;72649;59.274;18.450;2023-09-08T09:45:46;4.40;;;4.00;;
14282;SDS011;72649;59.274;18.450;2023-09-08T09:48:13;5.60;;;4.63;;
14282;SDS011;72649;59.274;18.450;2023-09-08T09:50:41;5.85;;;4.82;;
14282;SDS011;72649;59.274;18.450;2023-09-08T09:53:12;5.10;;;4.53;;
14282;SDS011;72649;59.274;18.450;2023-09-08T09:55:42;5.97;;;4.65;;
14282;SDS011;72649;59.274;18.450;2023-09-08T09:58:10;5.28;;;4.28;;
14282;SDS011;72649;59.274;18.450;2023-09-08T10:00:38;5.72;;;4.75;;
14282;SDS011;72649;59.274;18.450;2023-09-08T10:03:14;5.10;;;4.70;;
14282;SDS011;72649;59.274;18.450;2023-09-08T10:05:41;5.50;;;4.72;;
14282;SDS011;72649;59.274;18.450;2023-09-08T10:08:08;4.95;;;4.40;;
14282;SDS011;72649;59.274;18.450;2023-09-08T10:10:35;4.95;;;4.10;;
14282;SDS011;72649;59.274;18.450;2023-09-08T10:13:05;4.72;;;4.25;;
14282;SDS011;72649;59.274;18.450;2023-09-08T10:15:33;5.88;;;4.60;;
14282;SDS011;72649;59.274;18.450;2023-09-08T10:18:03;6.75;;;4.30;;
14282;SDS011;72649;59.274;18.450;2023-09-08T10:20:32;4.85;;;4.45;;
14282;SDS011;72649;59.274;18.450;2023-09-08T10:23:07;4.38;;;4.03;;
14282;SDS011;72649;59.274;18.450;2023-09-08T10:25:46;5.72;;;4.13;;
14282;SDS011;72649;59.274;18.450;2023-09-08T10:28:23;5.45;;;4.35;;
14282;SDS011;72649;59.274;18.450;2023-09-08T10:30:51;8.00;;;4.47;;
14282;SDS011;72649;59.274;18.450;2023-09-08T10:33:19;4.70;;;4.30;;
14282;SDS011;72649;59.274;18.450;2023-09-08T10:35:47;5.32;;;4.00;;
14282;SDS011;72649;59.274;18.450;2023-09-08T10:40:51;4.55;;;3.70;;
14282;SDS011;72649;59.274;18.450;2023-09-08T10:43:19;4.68;;;4.10;;
14282;SDS011;72649;59.274;18.450;2023-09-08T10:45:47;4.72;;;4.32;;
14282;SDS011;72649;59.274;18.450;2023-09-08T10:48:14;4.25;;;3.83;;
14282;SDS011;72649;59.274;18.450;2023-09-08T10:50:42;4.82;;;4.13;;
14282;SDS011;72649;59.274;18.450;2023-09-08T10:53:13;6.00;;;4.38;;
14282;SDS011;72649;59.274;18.450;2023-09-08T11:01:00;6.57;;;3.97;;
14282;SDS011;72649;59.274;18.450;2023-09-08T11:06:05;6.13;;;3.78;;
14282;SDS011;72649;59.274;18.450;2023-09-08T11:08:33;5.53;;;4.05;;
14282;SDS011;72649;59.274;18.450;2023-09-08T11:11:01;7.03;;;4.10;;
14282;SDS011;72649;59.274;18.450;2023-09-08T11:13:29;4.45;;;3.20;;
14282;SDS011;72649;59.274;18.450;2023-09-08T11:15:56;4.13;;;3.72;;
14282;SDS011;72649;59.274;18.450;2023-09-08T11:18:26;3.83;;;3.53;;
14282;SDS011;72649;59.274;18.450;2023-09-08T11:20:54;4.70;;;3.30;;
14282;SDS011;72649;59.274;18.450;2023-09-08T11:23:22;3.72;;;3.42;;
14282;SDS011;72649;59.274;18.450;2023-09-08T11:25:50;4.85;;;3.40;;
14282;SDS011;72649;59.274;18.450;2023-09-08T11:28:18;4.70;;;3.28;;
14282;SDS011;72649;59.274;18.450;2023-09-08T11:30:49;4.63;;;3.60;;
14282;SDS011;72649;59.274;18.450;2023-09-08T11:33:18;4.32;;;3.35;;
14282;SDS011;72649;59.274;18.450;2023-09-08T11:35:50;4.25;;;3.20;;
14282;SDS011;72649;59.274;18.450;2023-09-08T11:38:28;3.80;;;3.50;;
14282;SDS011;72649;59.274;18.450;2023-09-08T11:40:56;3.85;;;3.47;;
14282;SDS011;72649;59.274;18.450;2023-09-08T11:43:25;4.47;;;3.55;;
14282;SDS011;72649;59.274;18.450;2023-09-08T11:45:53;3.35;;;3.08;;
14282;SDS011;72649;59.274;18.450;2023-09-08T11:48:22;3.40;;;3.13;;
14282;SDS011;72649;59.274;18.450;2023-09-08T11:50:54;4.63;;;3.63;;
14282;SDS011;72649;59.274;18.450;2023-09-08T11:53:21;4.60;;;3.70;;
14282;SDS011;72649;59.274;18.450;2023-09-08T11:55:49;4.30;;;3.90;;
14282;SDS011;72649;59.274;18.450;2023-09-08T11:58:18;4.93;;;3.58;;
14282;SDS011;72649;59.274;18.450;2023-09-08T12:00:46;5.00;;;3.88;;
14282;SDS011;72649;59.274;18.450;2023-09-08T12:03:15;4.07;;;3.70;;
14282;SDS011;72649;59.274;18.450;2023-09-08T12:05:50;3.88;;;3.58;;
14282;SDS011;72649;59.274;18.450;2023-09-08T12:08:18;4.68;;;3.42;;
14282;SDS011;72649;59.274;18.450;2023-09-08T12:10:46;4.00;;;3.60;;
14282;SDS011;72649;59.274;18.450;2023-09-08T12:13:12;6.53;;;3.67;;
14282;SDS011;72649;59.274;18.450;2023-09-08T12:15:46;5.75;;;3.50;;
14282;SDS011;72649;59.274;18.450;2023-09-08T12:18:13;4.00;;;3.53;;
14282;SDS011;72649;59.274;18.450;2023-09-08T12:20:44;3.80;;;3.47;;
14282;SDS011;72649;59.274;18.450;2023-09-08T12:23:18;5.70;;;3.30;;
14282;SDS011;72649;59.274;18.450;2023-09-08T12:25:52;4.30;;;3.90;;
14282;SDS011;72649;59.274;18.450;2023-09-08T12:28:20;3.95;;;3.35;;
14282;SDS011;72649;59.274;18.450;2023-09-08T12:30:50;4.30;;;3.75;;
14282;SDS011;72649;59.274;18.450;2023-09-08T12:33:19;5.40;;;3.63;;
14282;SDS011;72649;59.274;18.450;2023-09-08T12:35:47;5.50;;;3.58;;
14282;SDS011;72649;59.274;18.450;2023-09-08T12:38:17;4.20;;;3.50;;
14282;SDS011;72649;59.274;18.450;2023-09-08T12:40:44;5.90;;;3.65;;
14282;SDS011;72649;59.274;18.450;2023-09-08T12:43:11;3.72;;;3.40;;
14282;SDS011;72649;59.274;18.450;2023-09-08T12:45:56;3.90;;;3.28;;
14282;SDS011;72649;59.274;18.450;2023-09-08T12:48:24;4.97;;;3.08;;
14282;SDS011;72649;59.274;18.450;2023-09-08T12:50:51;4.30;;;3.90;;
14282;SDS011;72649;59.274;18.450;2023-09-08T12:53:18;4.13;;;3.60;;
14282;SDS011;72649;59.274;18.450;2023-09-08T12:55:46;3.42;;;3.13;;
14282;SDS011;72649;59.274;18.450;2023-09-08T12:58:13;3.85;;;3.50;;
14282;SDS011;72649;59.274;18.450;2023-09-08T13:00:40;3.80;;;3.47;;
14282;SDS011;72649;59.274;18.450;2023-09-08T13:03:07;4.40;;;3.70;;
14282;SDS011;72649;59.274;18.450;2023-09-08T13:05:34;3.45;;;3.15;;
14282;SDS011;72649;59.274;18.450;2023-09-08T13:08:02;3.35;;;3.08;;
14282;SDS011;72649;59.274;18.450;2023-09-08T13:10:28;4.00;;;3.70;;
14282;SDS011;72649;59.274;18.450;2023-09-08T13:12:56;6.07;;;3.70;;
14282;SDS011;72649;59.274;18.450;2023-09-08T13:15:23;4.25;;;3.75;;
14282;SDS011;72649;59.274;18.450;2023-09-08T13:17:50;5.22;;;3.67;;
14282;SDS011;72649;59.274;18.450;2023-09-08T13:20:17;4.32;;;4.03;;
14282;SDS011;72649;59.274;18.450;2023-09-08T13:22:45;6.63;;;3.88;;
14282;SDS011;72649;59.274;18.450;2023-09-08T13:25:12;6.55;;;3.70;;
14282;SDS011;72649;59.274;18.450;2023-09-08T13:27:42;6.45;;;3.90;;
14282;SDS011;72649;59.274;18.450;2023-09-08T13:30:09;6.78;;;4.43;;
14282;SDS011;72649;59.274;18.450;2023-09-08T13:32:37;4.97;;;4.05;;
14282;SDS011;72649;59.274;18.450;2023-09-08T13:35:05;4.40;;;3.92;;
14282;SDS011;72649;59.274;18.450;2023-09-08T13:37:32;6.95;;;4.47;;
14282;SDS011;72649;59.274;18.450;2023-09-08T13:40:05;4.28;;;3.88;;
14282;SDS011;72649;59.274;18.450;2023-09-08T13:42:34;4.82;;;4.45;;
14282;SDS011;72649;59.274;18.450;2023-09-08T13:45:00;4.38;;;4.00;;
14282;SDS011;72649;59.274;18.450;2023-09-08T13:47:28;4.30;;;4.00;;
14282;SDS011;72649;59.274;18.450;2023-09-08T13:49:55;5.65;;;3.80;;
14282;SDS011;72649;59.274;18.450;2023-09-08T13:52:24;4.40;;;4.00;;
14282;SDS011;72649;59.274;18.450;2023-09-08T13:54:56;5.28;;;4.40;;
14282;SDS011;72649;59.274;18.450;2023-09-08T13:57:26;4.50;;;4.10;;
14282;SDS011;72649;59.274;18.450;2023-09-08T13:59:54;5.50;;;4.50;;
14282;SDS011;72649;59.274;18.450;2023-09-08T14:02:23;4.78;;;4.10;;
14282;SDS011;72649;59.274;18.450;2023-09-08T14:04:53;6.18;;;4.47;;
14282;SDS011;72649;59.274;18.450;2023-09-08T14:07:27;4.82;;;4.00;;
14282;SDS011;72649;59.274;18.450;2023-09-08T14:10:03;5.00;;;4.60;;
14282;SDS011;72649;59.274;18.450;2023-09-08T14:12:36;4.95;;;4.55;;
14282;SDS011;72649;59.274;18.450;2023-09-08T14:15:04;5.70;;;5.20;;
14282;SDS011;72649;59.274;18.450;2023-09-08T14:17:31;5.15;;;4.65;;
14282;SDS011;72649;59.274;18.450;2023-09-08T14:19:58;4.30;;;3.90;;
14282;SDS011;72649;59.274;18.450;2023-09-08T14:22:25;5.63;;;4.35;;
14282;SDS011;72649;59.274;18.450;2023-09-08T14:24:53;5.03;;;4.63;;
14282;SDS011;72649;59.274;18.450;2023-09-08T14:27:20;5.63;;;5.13;;
14282;SDS011;72649;59.274;18.450;2023-09-08T14:29:46;8.52;;;4.75;;
14282;SDS011;72649;59.274;18.450;2023-09-08T14:32:13;5.05;;;4.55;;
14282;SDS011;72649;59.274;18.450;2023-09-08T14:34:40;5.07;;;4.68;;
14282;SDS011;72649;59.274;18.450;2023-09-08T14:37:07;4.35;;;3.95;;
14282;SDS011;72649;59.274;18.450;2023-09-08T14:39:36;4.78;;;4.30;;
14282;SDS011;72649;59.274;18.450;2023-09-08T14:42:04;4.85;;;4.35;;
14282;SDS011;72649;59.274;18.450;2023-09-08T14:44:31;5.63;;;4.53;;
14282;SDS011;72649;59.274;18.450;2023-09-08T14:46:58;5.00;;;4.40;;
14282;SDS011;72649;59.274;18.450;2023-09-08T14:49:25;6.22;;;4.93;;
14282;SDS011;72649;59.274;18.450;2023-09-08T14:51:52;5.20;;;4.43;;